Pagrindinis puslapis
METAR-TAF:

METAR-TAF

Oro uostai :

Katanija, Italija

platuma: 37-28N, ilguma: 015-03E, Aukštis: 11 m

Dabartinis oras

Ataskaita buvo paskelbta 38 minutes, ne 06:20 UTC
Vėjas 6 kt iš Pietvakarių
Temperatūra 20°C
Drėgmė 68%
Slėgis 1012 hPa
Matomumas 10 km arba daugiau
nėra debesų žemiau 1500 m ir nėra kamuolinių lietaus debesų

METAR: LICC 070620Z 23006KT CAVOK 20/14 Q1012

Laikas: 08:58 (06:58 UTC)

Prognozė

Ataskaita buvo paskelbta 1 valandą ir 58 minutes, ne 05:00 UTC
Prognozė galioja nuo 07 metu 06 UTC su 08 metu 06 UTC
Vėjas 5 kt nuo kintamojo kryptimis
Matomumas 10 km arba daugiau
Išsisklaidę debesys ne aukštis 3000 ft
Tapsmas
nuo 07 metu 08 UTC su 07 metu 10 UTC
Vėjas 12 kt iš Rytų
Tapsmas
nuo 07 metu 18 UTC su 07 metu 20 UTC
Vėjas 5 kt nuo kintamojo kryptimis

TAF: LICC 070500Z 0706/0806 VRB05KT 9999 SCT030 BECMG 0708/0710 08012KT BECMG 0718/0720 VRB05KT

Orai ataskaitas ir orų prognozės (METAR, TAF).

turimą stotys yra geltonos ir raudonos taškus žemėlapyje.

Perkelti pele per norėdami pamatyti stoties vardą.

Tada spustelėkite, norėdami matyti oro stebėjimo ir prognozės.

Norėdami pakeisti žemėlapį: spustelėkite ant žalios mygtukų su juodo kryžiaus žemyn,; žalią mygtuką su brūkšneliu, jei norite nutolinti; arba žalių rodyklių gretimoms žemėlapius.


METAR-TAF: